sensor_id;sensor_type;location;lat;lon;timestamp;temperature;humidity
16154;DHT22;8182;55.648;13.208;2023-11-19T00:02:15;2.00;1.00
16154;DHT22;8182;55.648;13.208;2023-11-19T00:04:42;1.90;1.00
16154;DHT22;8182;55.648;13.208;2023-11-19T00:07:09;1.90;1.00
16154;DHT22;8182;55.648;13.208;2023-11-19T00:09:37;1.90;1.00
16154;DHT22;8182;55.648;13.208;2023-11-19T00:12:05;1.90;1.00
16154;DHT22;8182;55.648;13.208;2023-11-19T00:14:33;1.90;1.00
16154;DHT22;8182;55.648;13.208;2023-11-19T00:17:01;1.90;1.00
16154;DHT22;8182;55.648;13.208;2023-11-19T00:19:29;2.00;1.00
16154;DHT22;8182;55.648;13.208;2023-11-19T00:21:56;1.90;1.00
16154;DHT22;8182;55.648;13.208;2023-11-19T00:24:28;1.90;1.00
16154;DHT22;8182;55.648;13.208;2023-11-19T00:26:54;1.90;1.00
16154;DHT22;8182;55.648;13.208;2023-11-19T00:29:22;2.00;1.00
16154;DHT22;8182;55.648;13.208;2023-11-19T00:31:48;2.00;1.00
16154;DHT22;8182;55.648;13.208;2023-11-19T00:34:17;1.90;1.00
16154;DHT22;8182;55.648;13.208;2023-11-19T00:36:47;1.90;1.00
16154;DHT22;8182;55.648;13.208;2023-11-19T00:39:14;1.90;1.00
16154;DHT22;8182;55.648;13.208;2023-11-19T00:41:41;1.90;1.00
16154;DHT22;8182;55.648;13.208;2023-11-19T00:44:08;1.90;1.00
16154;DHT22;8182;55.648;13.208;2023-11-19T00:46:35;1.80;1.00
16154;DHT22;8182;55.648;13.208;2023-11-19T00:49:02;1.90;1.00
16154;DHT22;8182;55.648;13.208;2023-11-19T00:51:30;1.90;1.00
16154;DHT22;8182;55.648;13.208;2023-11-19T00:53:58;1.90;1.00
16154;DHT22;8182;55.648;13.208;2023-11-19T00:56:26;1.90;1.00
16154;DHT22;8182;55.648;13.208;2023-11-19T00:58:53;1.90;1.00
16154;DHT22;8182;55.648;13.208;2023-11-19T01:01:21;1.90;1.00
16154;DHT22;8182;55.648;13.208;2023-11-19T01:03:48;1.90;1.00
16154;DHT22;8182;55.648;13.208;2023-11-19T01:06:15;1.90;1.00
16154;DHT22;8182;55.648;13.208;2023-11-19T01:08:54;1.90;1.00
16154;DHT22;8182;55.648;13.208;2023-11-19T01:11:22;2.00;1.00
16154;DHT22;8182;55.648;13.208;2023-11-19T01:13:50;2.00;1.00
16154;DHT22;8182;55.648;13.208;2023-11-19T01:16:18;2.00;1.00
16154;DHT22;8182;55.648;13.208;2023-11-19T01:18:46;2.10;1.00
16154;DHT22;8182;55.648;13.208;2023-11-19T01:21:13;2.10;1.00
16154;DHT22;8182;55.648;13.208;2023-11-19T01:23:40;2.10;1.00
16154;DHT22;8182;55.648;13.208;2023-11-19T01:26:10;2.10;1.00
16154;DHT22;8182;55.648;13.208;2023-11-19T01:28:38;2.10;1.00
16154;DHT22;8182;55.648;13.208;2023-11-19T01:31:10;2.20;1.00
16154;DHT22;8182;55.648;13.208;2023-11-19T01:33:38;2.20;1.00
16154;DHT22;8182;55.648;13.208;2023-11-19T01:36:06;2.20;1.00
16154;DHT22;8182;55.648;13.208;2023-11-19T01:38:33;2.20;1.00
16154;DHT22;8182;55.648;13.208;2023-11-19T01:41:00;2.20;1.00
16154;DHT22;8182;55.648;13.208;2023-11-19T01:43:34;2.30;1.00
16154;DHT22;8182;55.648;13.208;2023-11-19T01:46:01;2.30;1.00
16154;DHT22;8182;55.648;13.208;2023-11-19T01:48:28;2.30;1.00
16154;DHT22;8182;55.648;13.208;2023-11-19T01:50:58;2.30;1.00
16154;DHT22;8182;55.648;13.208;2023-11-19T01:53:25;2.40;1.00
16154;DHT22;8182;55.648;13.208;2023-11-19T01:55:53;2.40;1.00
16154;DHT22;8182;55.648;13.208;2023-11-19T01:58:21;2.40;1.00
16154;DHT22;8182;55.648;13.208;2023-11-19T02:00:50;2.50;1.00
16154;DHT22;8182;55.648;13.208;2023-11-19T02:03:17;2.60;1.00
16154;DHT22;8182;55.648;13.208;2023-11-19T02:05:48;2.70;1.00
16154;DHT22;8182;55.648;13.208;2023-11-19T02:08:16;2.70;1.00
16154;DHT22;8182;55.648;13.208;2023-11-19T02:10:43;2.80;1.00
16154;DHT22;8182;55.648;13.208;2023-11-19T02:13:12;3.00;1.00
16154;DHT22;8182;55.648;13.208;2023-11-19T02:15:40;3.10;1.00
16154;DHT22;8182;55.648;13.208;2023-11-19T02:18:19;3.50;1.00
16154;DHT22;8182;55.648;13.208;2023-11-19T02:20:47;3.40;1.00
16154;DHT22;8182;55.648;13.208;2023-11-19T02:23:15;3.80;1.00
16154;DHT22;8182;55.648;13.208;2023-11-19T02:25:43;3.60;1.00
16154;DHT22;8182;55.648;13.208;2023-11-19T02:28:19;3.60;1.00
16154;DHT22;8182;55.648;13.208;2023-11-19T02:30:47;3.70;1.00
16154;DHT22;8182;55.648;13.208;2023-11-19T02:33:14;3.80;1.00
16154;DHT22;8182;55.648;13.208;2023-11-19T02:35:41;4.00;1.00
16154;DHT22;8182;55.648;13.208;2023-11-19T02:38:08;4.00;1.00
16154;DHT22;8182;55.648;13.208;2023-11-19T02:40:35;4.10;1.00
16154;DHT22;8182;55.648;13.208;2023-11-19T02:43:02;4.30;1.00
16154;DHT22;8182;55.648;13.208;2023-11-19T02:45:32;4.30;1.00
16154;DHT22;8182;55.648;13.208;2023-11-19T02:47:59;4.10;1.00
16154;DHT22;8182;55.648;13.208;2023-11-19T02:50:27;4.20;1.00
16154;DHT22;8182;55.648;13.208;2023-11-19T02:52:55;4.20;1.00
16154;DHT22;8182;55.648;13.208;2023-11-19T02:55:23;4.20;1.00
16154;DHT22;8182;55.648;13.208;2023-11-19T02:57:50;4.30;1.00
16154;DHT22;8182;55.648;13.208;2023-11-19T03:00:20;4.40;1.00
16154;DHT22;8182;55.648;13.208;2023-11-19T03:02:53;4.20;1.00
16154;DHT22;8182;55.648;13.208;2023-11-19T03:05:26;4.30;1.00
16154;DHT22;8182;55.648;13.208;2023-11-19T03:07:56;4.40;1.00
16154;DHT22;8182;55.648;13.208;2023-11-19T03:10:23;4.40;1.00
16154;DHT22;8182;55.648;13.208;2023-11-19T03:12:50;4.40;1.00
16154;DHT22;8182;55.648;13.208;2023-11-19T03:15:17;4.50;1.00
16154;DHT22;8182;55.648;13.208;2023-11-19T03:17:46;4.40;1.00
16154;DHT22;8182;55.648;13.208;2023-11-19T03:20:16;4.60;1.00
16154;DHT22;8182;55.648;13.208;2023-11-19T03:22:44;4.50;99.90
16154;DHT22;8182;55.648;13.208;2023-11-19T03:25:11;4.40;1.00
16154;DHT22;8182;55.648;13.208;2023-11-19T03:27:38;4.30;1.00
16154;DHT22;8182;55.648;13.208;2023-11-19T03:30:08;4.30;1.00
16154;DHT22;8182;55.648;13.208;2023-11-19T03:32:36;4.30;99.90
16154;DHT22;8182;55.648;13.208;2023-11-19T03:35:05;4.30;1.00
16154;DHT22;8182;55.648;13.208;2023-11-19T03:37:35;4.20;1.00
16154;DHT22;8182;55.648;13.208;2023-11-19T03:40:06;4.30;99.90
16154;DHT22;8182;55.648;13.208;2023-11-19T03:42:33;4.10;99.90
16154;DHT22;8182;55.648;13.208;2023-11-19T03:45:00;4.20;99.90
16154;DHT22;8182;55.648;13.208;2023-11-19T03:47:29;4.20;1.00
16154;DHT22;8182;55.648;13.208;2023-11-19T03:49:56;4.10;1.00
16154;DHT22;8182;55.648;13.208;2023-11-19T03:52:24;4.20;1.00
16154;DHT22;8182;55.648;13.208;2023-11-19T03:54:53;4.20;1.00
16154;DHT22;8182;55.648;13.208;2023-11-19T03:57:22;4.10;1.00
16154;DHT22;8182;55.648;13.208;2023-11-19T03:59:49;4.20;1.00
16154;DHT22;8182;55.648;13.208;2023-11-19T04:02:18;4.10;9.90
16154;DHT22;8182;55.648;13.208;2023-11-19T04:04:45;4.10;92.00
16154;DHT22;8182;55.648;13.208;2023-11-19T04:07:11;4.10;99.90
16154;DHT22;8182;55.648;13.208;2023-11-19T04:09:38;4.10;99.90
16154;DHT22;8182;55.648;13.208;2023-11-19T04:12:07;4.10;99.90
16154;DHT22;8182;55.648;13.208;2023-11-19T04:14:36;4.10;99.90
16154;DHT22;8182;55.648;13.208;2023-11-19T04:17:03;4.10;99.90
16154;DHT22;8182;55.648;13.208;2023-11-19T04:19:30;4.10;99.90
16154;DHT22;8182;55.648;13.208;2023-11-19T04:21:58;4.10;99.90
16154;DHT22;8182;55.648;13.208;2023-11-19T04:24:25;4.10;99.90
16154;DHT22;8182;55.648;13.208;2023-11-19T04:26:52;4.20;99.90
16154;DHT22;8182;55.648;13.208;2023-11-19T04:29:20;4.10;99.90
16154;DHT22;8182;55.648;13.208;2023-11-19T04:31:47;4.10;28.10
16154;DHT22;8182;55.648;13.208;2023-11-19T04:34:14;4.10;99.90
16154;DHT22;8182;55.648;13.208;2023-11-19T04:36:41;4.10;1.00
16154;DHT22;8182;55.648;13.208;2023-11-19T04:39:09;4.10;1.00
16154;DHT22;8182;55.648;13.208;2023-11-19T04:41:46;4.10;99.90
16154;DHT22;8182;55.648;13.208;2023-11-19T04:44:13;4.20;1.00
16154;DHT22;8182;55.648;13.208;2023-11-19T04:46:43;4.20;1.00
16154;DHT22;8182;55.648;13.208;2023-11-19T04:49:10;4.20;93.20
16154;DHT22;8182;55.648;13.208;2023-11-19T04:51:38;4.20;99.90
16154;DHT22;8182;55.648;13.208;2023-11-19T04:54:06;4.20;99.90
16154;DHT22;8182;55.648;13.208;2023-11-19T04:56:34;4.20;99.90
16154;DHT22;8182;55.648;13.208;2023-11-19T04:59:01;4.20;99.90
16154;DHT22;8182;55.648;13.208;2023-11-19T05:01:29;4.20;1.00
16154;DHT22;8182;55.648;13.208;2023-11-19T05:03:57;4.20;1.00
16154;DHT22;8182;55.648;13.208;2023-11-19T05:06:26;4.20;1.00
16154;DHT22;8182;55.648;13.208;2023-11-19T05:08:55;4.30;1.00
16154;DHT22;8182;55.648;13.208;2023-11-19T05:11:22;4.30;18.40
16154;DHT22;8182;55.648;13.208;2023-11-19T05:13:49;4.30;99.90
16154;DHT22;8182;55.648;13.208;2023-11-19T05:16:16;4.30;99.90
16154;DHT22;8182;55.648;13.208;2023-11-19T05:18:43;4.30;99.90
16154;DHT22;8182;55.648;13.208;2023-11-19T05:21:12;4.30;99.90
16154;DHT22;8182;55.648;13.208;2023-11-19T05:23:39;4.30;1.00
16154;DHT22;8182;55.648;13.208;2023-11-19T05:26:06;4.30;1.00
16154;DHT22;8182;55.648;13.208;2023-11-19T05:28:38;4.30;1.00
16154;DHT22;8182;55.648;13.208;2023-11-19T05:31:05;4.40;99.90
16154;DHT22;8182;55.648;13.208;2023-11-19T05:33:32;4.30;99.90
16154;DHT22;8182;55.648;13.208;2023-11-19T05:35:59;4.30;99.90
16154;DHT22;8182;55.648;13.208;2023-11-19T05:38:30;4.30;99.90
16154;DHT22;8182;55.648;13.208;2023-11-19T05:40:57;4.30;1.00
16154;DHT22;8182;55.648;13.208;2023-11-19T05:43:24;4.30;1.00
16154;DHT22;8182;55.648;13.208;2023-11-19T05:45:51;4.30;1.00
16154;DHT22;8182;55.648;13.208;2023-11-19T05:48:18;4.40;99.90
16154;DHT22;8182;55.648;13.208;2023-11-19T05:50:44;4.40;99.90
16154;DHT22;8182;55.648;13.208;2023-11-19T05:53:11;4.40;1.00
16154;DHT22;8182;55.648;13.208;2023-11-19T05:55:43;4.40;1.00
16154;DHT22;8182;55.648;13.208;2023-11-19T05:58:14;4.40;99.90
16154;DHT22;8182;55.648;13.208;2023-11-19T06:00:42;4.40;1.00
16154;DHT22;8182;55.648;13.208;2023-11-19T06:03:09;4.40;1.90
16154;DHT22;8182;55.648;13.208;2023-11-19T06:05:35;4.50;1.00
16154;DHT22;8182;55.648;13.208;2023-11-19T06:08:02;4.40;1.00
16154;DHT22;8182;55.648;13.208;2023-11-19T06:10:29;4.50;1.00
16154;DHT22;8182;55.648;13.208;2023-11-19T06:12:59;4.40;1.00
16154;DHT22;8182;55.648;13.208;2023-11-19T06:15:30;4.50;1.00
16154;DHT22;8182;55.648;13.208;2023-11-19T06:17:58;4.50;1.00
16154;DHT22;8182;55.648;13.208;2023-11-19T06:20:27;4.50;1.00
16154;DHT22;8182;55.648;13.208;2023-11-19T06:22:54;4.60;1.00
16154;DHT22;8182;55.648;13.208;2023-11-19T06:25:21;4.60;1.00
16154;DHT22;8182;55.648;13.208;2023-11-19T06:27:49;4.60;1.00
16154;DHT22;8182;55.648;13.208;2023-11-19T06:30:18;4.50;1.00
16154;DHT22;8182;55.648;13.208;2023-11-19T06:32:45;4.50;1.00
16154;DHT22;8182;55.648;13.208;2023-11-19T06:35:12;4.60;1.00
16154;DHT22;8182;55.648;13.208;2023-11-19T06:37:40;4.60;1.00
16154;DHT22;8182;55.648;13.208;2023-11-19T06:40:08;4.50;1.00
16154;DHT22;8182;55.648;13.208;2023-11-19T06:42:35;4.60;1.00
16154;DHT22;8182;55.648;13.208;2023-11-19T06:45:03;4.60;1.00
16154;DHT22;8182;55.648;13.208;2023-11-19T06:47:31;4.70;1.00
16154;DHT22;8182;55.648;13.208;2023-11-19T06:49:58;4.70;99.90
16154;DHT22;8182;55.648;13.208;2023-11-19T06:52:25;4.70;99.90
16154;DHT22;8182;55.648;13.208;2023-11-19T06:54:52;4.70;99.90
16154;DHT22;8182;55.648;13.208;2023-11-19T06:57:19;4.70;99.90
16154;DHT22;8182;55.648;13.208;2023-11-19T06:59:47;4.70;99.90
16154;DHT22;8182;55.648;13.208;2023-11-19T07:02:13;4.70;99.90
16154;DHT22;8182;55.648;13.208;2023-11-19T07:04:42;4.70;99.90
16154;DHT22;8182;55.648;13.208;2023-11-19T07:07:11;4.70;99.90
16154;DHT22;8182;55.648;13.208;2023-11-19T07:09:41;4.80;99.90
16154;DHT22;8182;55.648;13.208;2023-11-19T07:12:08;4.80;99.90
16154;DHT22;8182;55.648;13.208;2023-11-19T07:14:35;4.80;99.90
16154;DHT22;8182;55.648;13.208;2023-11-19T07:17:02;4.80;99.90
16154;DHT22;8182;55.648;13.208;2023-11-19T07:19:29;4.90;92.50
16154;DHT22;8182;55.648;13.208;2023-11-19T07:21:57;4.90;99.90
16154;DHT22;8182;55.648;13.208;2023-11-19T07:24:24;4.90;99.90
16154;DHT22;8182;55.648;13.208;2023-11-19T07:26:53;4.90;99.90
16154;DHT22;8182;55.648;13.208;2023-11-19T07:29:23;5.00;1.00
16154;DHT22;8182;55.648;13.208;2023-11-19T07:31:50;5.00;99.90
16154;DHT22;8182;55.648;13.208;2023-11-19T07:34:17;5.00;1.00
16154;DHT22;8182;55.648;13.208;2023-11-19T07:36:45;5.00;1.00
16154;DHT22;8182;55.648;13.208;2023-11-19T07:39:14;5.10;1.00
16154;DHT22;8182;55.648;13.208;2023-11-19T07:41:41;5.00;1.00
16154;DHT22;8182;55.648;13.208;2023-11-19T07:44:08;5.00;1.00
16154;DHT22;8182;55.648;13.208;2023-11-19T07:46:37;5.10;1.00
16154;DHT22;8182;55.648;13.208;2023-11-19T07:49:04;5.10;1.00
16154;DHT22;8182;55.648;13.208;2023-11-19T07:51:31;5.00;1.00
16154;DHT22;8182;55.648;13.208;2023-11-19T07:53:58;5.10;1.00
16154;DHT22;8182;55.648;13.208;2023-11-19T07:56:26;5.20;1.00
16154;DHT22;8182;55.648;13.208;2023-11-19T07:58:53;5.20;1.00
16154;DHT22;8182;55.648;13.208;2023-11-19T08:01:20;5.20;1.00
16154;DHT22;8182;55.648;13.208;2023-11-19T08:03:50;5.10;1.00
16154;DHT22;8182;55.648;13.208;2023-11-19T08:06:17;5.10;1.00
16154;DHT22;8182;55.648;13.208;2023-11-19T08:08:44;5.10;1.00
16154;DHT22;8182;55.648;13.208;2023-11-19T08:11:11;5.20;1.00
16154;DHT22;8182;55.648;13.208;2023-11-19T08:13:39;5.20;1.00
16154;DHT22;8182;55.648;13.208;2023-11-19T08:16:07;5.20;1.00
16154;DHT22;8182;55.648;13.208;2023-11-19T08:18:35;5.20;1.00
16154;DHT22;8182;55.648;13.208;2023-11-19T08:21:02;5.10;1.00
16154;DHT22;8182;55.648;13.208;2023-11-19T08:23:30;5.10;1.00
16154;DHT22;8182;55.648;13.208;2023-11-19T08:25:57;5.10;1.00
16154;DHT22;8182;55.648;13.208;2023-11-19T08:28:25;5.10;1.00
16154;DHT22;8182;55.648;13.208;2023-11-19T08:30:54;5.00;1.00
16154;DHT22;8182;55.648;13.208;2023-11-19T08:33:21;5.10;1.00
16154;DHT22;8182;55.648;13.208;2023-11-19T08:35:49;5.10;1.00
16154;DHT22;8182;55.648;13.208;2023-11-19T08:38:15;5.10;1.00
16154;DHT22;8182;55.648;13.208;2023-11-19T08:40:43;5.10;1.00
16154;DHT22;8182;55.648;13.208;2023-11-19T08:43:09;5.10;1.00
16154;DHT22;8182;55.648;13.208;2023-11-19T08:45:36;5.10;1.00
16154;DHT22;8182;55.648;13.208;2023-11-19T08:48:05;5.10;1.00
16154;DHT22;8182;55.648;13.208;2023-11-19T08:50:32;5.00;1.00
16154;DHT22;8182;55.648;13.208;2023-11-19T08:52:59;5.00;1.00
16154;DHT22;8182;55.648;13.208;2023-11-19T08:55:26;4.90;1.00
16154;DHT22;8182;55.648;13.208;2023-11-19T08:57:53;4.90;1.00
16154;DHT22;8182;55.648;13.208;2023-11-19T09:00:20;5.00;1.00
16154;DHT22;8182;55.648;13.208;2023-11-19T09:02:46;4.90;1.00
16154;DHT22;8182;55.648;13.208;2023-11-19T09:05:15;4.90;1.00
16154;DHT22;8182;55.648;13.208;2023-11-19T09:07:42;4.90;1.00
16154;DHT22;8182;55.648;13.208;2023-11-19T09:10:10;4.80;1.00
16154;DHT22;8182;55.648;13.208;2023-11-19T09:12:37;4.80;1.00
16154;DHT22;8182;55.648;13.208;2023-11-19T09:15:05;4.80;99.90
16154;DHT22;8182;55.648;13.208;2023-11-19T09:17:33;4.80;99.90
16154;DHT22;8182;55.648;13.208;2023-11-19T09:20:00;4.70;99.90
16154;DHT22;8182;55.648;13.208;2023-11-19T09:22:28;4.70;99.90
16154;DHT22;8182;55.648;13.208;2023-11-19T09:24:55;4.70;99.90
16154;DHT22;8182;55.648;13.208;2023-11-19T09:27:28;4.80;99.90
16154;DHT22;8182;55.648;13.208;2023-11-19T09:29:58;4.70;99.90
16154;DHT22;8182;55.648;13.208;2023-11-19T09:32:27;4.70;99.90
16154;DHT22;8182;55.648;13.208;2023-11-19T09:34:54;4.70;99.90
16154;DHT22;8182;55.648;13.208;2023-11-19T09:37:21;4.70;99.90
16154;DHT22;8182;55.648;13.208;2023-11-19T09:39:49;4.70;99.90
16154;DHT22;8182;55.648;13.208;2023-11-19T09:42:16;4.70;99.90
16154;DHT22;8182;55.648;13.208;2023-11-19T09:44:47;4.60;99.90
16154;DHT22;8182;55.648;13.208;2023-11-19T09:47:19;4.60;99.90
16154;DHT22;8182;55.648;13.208;2023-11-19T09:49:46;4.60;99.90
16154;DHT22;8182;55.648;13.208;2023-11-19T09:52:14;4.60;99.90
16154;DHT22;8182;55.648;13.208;2023-11-19T09:54:41;4.60;99.90
16154;DHT22;8182;55.648;13.208;2023-11-19T09:57:11;4.60;99.90
16154;DHT22;8182;55.648;13.208;2023-11-19T09:59:40;4.60;99.90
16154;DHT22;8182;55.648;13.208;2023-11-19T10:02:07;4.60;99.90
16154;DHT22;8182;55.648;13.208;2023-11-19T10:04:35;4.50;99.90
16154;DHT22;8182;55.648;13.208;2023-11-19T10:07:04;4.50;99.90
16154;DHT22;8182;55.648;13.208;2023-11-19T10:09:30;4.50;99.90
16154;DHT22;8182;55.648;13.208;2023-11-19T10:11:57;4.50;99.90
16154;DHT22;8182;55.648;13.208;2023-11-19T10:14:26;4.50;99.90
16154;DHT22;8182;55.648;13.208;2023-11-19T10:16:57;4.50;99.90
16154;DHT22;8182;55.648;13.208;2023-11-19T10:19:29;4.50;99.90
16154;DHT22;8182;55.648;13.208;2023-11-19T10:22:02;4.40;99.90
16154;DHT22;8182;55.648;13.208;2023-11-19T10:24:33;4.40;99.90
16154;DHT22;8182;55.648;13.208;2023-11-19T10:27:06;4.40;99.90
16154;DHT22;8182;55.648;13.208;2023-11-19T10:29:37;4.40;99.90
16154;DHT22;8182;55.648;13.208;2023-11-19T10:32:05;4.40;99.90
16154;DHT22;8182;55.648;13.208;2023-11-19T10:34:32;4.40;99.90
16154;DHT22;8182;55.648;13.208;2023-11-19T10:36:59;4.40;99.90
16154;DHT22;8182;55.648;13.208;2023-11-19T10:39:52;4.40;99.90
16154;DHT22;8182;55.648;13.208;2023-11-19T10:42:20;4.40;99.90
16154;DHT22;8182;55.648;13.208;2023-11-19T10:44:49;4.30;99.90
16154;DHT22;8182;55.648;13.208;2023-11-19T10:47:19;4.30;99.90
16154;DHT22;8182;55.648;13.208;2023-11-19T10:49:46;4.30;99.90
16154;DHT22;8182;55.648;13.208;2023-11-19T10:52:20;4.40;99.90
16154;DHT22;8182;55.648;13.208;2023-11-19T10:54:50;4.30;99.90
16154;DHT22;8182;55.648;13.208;2023-11-19T10:57:20;4.30;99.90
16154;DHT22;8182;55.648;13.208;2023-11-19T10:59:52;4.30;99.90
16154;DHT22;8182;55.648;13.208;2023-11-19T11:02:25;4.30;99.90
16154;DHT22;8182;55.648;13.208;2023-11-19T11:04:54;4.30;99.90
16154;DHT22;8182;55.648;13.208;2023-11-19T11:07:22;4.30;99.90
16154;DHT22;8182;55.648;13.208;2023-11-19T11:09:51;4.30;99.90
16154;DHT22;8182;55.648;13.208;2023-11-19T11:12:24;4.30;99.90
16154;DHT22;8182;55.648;13.208;2023-11-19T11:14:53;4.30;99.90
16154;DHT22;8182;55.648;13.208;2023-11-19T11:17:24;4.30;99.90
16154;DHT22;8182;55.648;13.208;2023-11-19T11:19:54;4.40;99.90
16154;DHT22;8182;55.648;13.208;2023-11-19T11:22:21;4.40;99.90
16154;DHT22;8182;55.648;13.208;2023-11-19T11:25:06;4.30;99.90
16154;DHT22;8182;55.648;13.208;2023-11-19T11:30:53;4.30;99.90
16154;DHT22;8182;55.648;13.208;2023-11-19T11:33:32;4.30;99.90
16154;DHT22;8182;55.648;13.208;2023-11-19T11:36:11;4.30;99.90
16154;DHT22;8182;55.648;13.208;2023-11-19T11:38:40;4.30;99.90
16154;DHT22;8182;55.648;13.208;2023-11-19T11:41:18;4.30;99.90
16154;DHT22;8182;55.648;13.208;2023-11-19T11:43:51;4.30;99.90
16154;DHT22;8182;55.648;13.208;2023-11-19T11:49:29;4.30;99.90
16154;DHT22;8182;55.648;13.208;2023-11-19T11:52:01;4.30;99.90
16154;DHT22;8182;55.648;13.208;2023-11-19T11:54:29;4.30;99.90
16154;DHT22;8182;55.648;13.208;2023-11-19T11:57:06;4.30;99.90
16154;DHT22;8182;55.648;13.208;2023-11-19T11:59:47;4.20;99.90
16154;DHT22;8182;55.648;13.208;2023-11-19T12:02:16;4.20;99.90
16154;DHT22;8182;55.648;13.208;2023-11-19T12:04:47;4.20;99.90
16154;DHT22;8182;55.648;13.208;2023-11-19T12:07:16;4.20;99.90
16154;DHT22;8182;55.648;13.208;2023-11-19T12:09:47;4.30;99.90
16154;DHT22;8182;55.648;13.208;2023-11-19T12:12:19;4.20;99.90
16154;DHT22;8182;55.648;13.208;2023-11-19T12:15:00;4.30;99.90
16154;DHT22;8182;55.648;13.208;2023-11-19T12:17:38;4.20;99.90
16154;DHT22;8182;55.648;13.208;2023-11-19T12:20:11;4.20;99.90
16154;DHT22;8182;55.648;13.208;2023-11-19T12:22:39;4.20;99.90
16154;DHT22;8182;55.648;13.208;2023-11-19T12:25:07;4.20;99.90
16154;DHT22;8182;55.648;13.208;2023-11-19T12:27:35;4.20;99.90
16154;DHT22;8182;55.648;13.208;2023-11-19T12:30:02;4.10;99.90
16154;DHT22;8182;55.648;13.208;2023-11-19T12:32:41;4.20;99.90
16154;DHT22;8182;55.648;13.208;2023-11-19T12:35:09;4.20;99.90
16154;DHT22;8182;55.648;13.208;2023-11-19T12:37:42;4.30;99.90
16154;DHT22;8182;55.648;13.208;2023-11-19T12:40:14;4.20;99.90
16154;DHT22;8182;55.648;13.208;2023-11-19T12:42:42;4.20;99.90
16154;DHT22;8182;55.648;13.208;2023-11-19T12:45:09;4.20;99.90
16154;DHT22;8182;55.648;13.208;2023-11-19T12:47:38;4.20;99.90
16154;DHT22;8182;55.648;13.208;2023-11-19T12:50:06;4.20;99.90
16154;DHT22;8182;55.648;13.208;2023-11-19T12:52:34;4.20;99.90
16154;DHT22;8182;55.648;13.208;2023-11-19T12:55:02;4.20;99.90
16154;DHT22;8182;55.648;13.208;2023-11-19T12:57:37;4.20;99.90
16154;DHT22;8182;55.648;13.208;2023-11-19T13:00:05;4.20;99.90
16154;DHT22;8182;55.648;13.208;2023-11-19T13:02:45;4.20;99.90
16154;DHT22;8182;55.648;13.208;2023-11-19T13:05:27;4.20;99.90
16154;DHT22;8182;55.648;13.208;2023-11-19T13:08:01;4.20;99.90
16154;DHT22;8182;55.648;13.208;2023-11-19T13:10:30;4.30;99.90
16154;DHT22;8182;55.648;13.208;2023-11-19T13:13:04;4.20;99.90
16154;DHT22;8182;55.648;13.208;2023-11-19T13:15:31;4.20;99.90
16154;DHT22;8182;55.648;13.208;2023-11-19T13:17:58;4.20;99.90
16154;DHT22;8182;55.648;13.208;2023-11-19T13:20:25;4.20;99.90
16154;DHT22;8182;55.648;13.208;2023-11-19T13:22:57;4.20;99.90
16154;DHT22;8182;55.648;13.208;2023-11-19T13:25:24;4.30;99.90
16154;DHT22;8182;55.648;13.208;2023-11-19T13:27:53;4.30;99.90
16154;DHT22;8182;55.648;13.208;2023-11-19T13:30:24;4.30;99.90
16154;DHT22;8182;55.648;13.208;2023-11-19T13:32:52;4.30;99.90
16154;DHT22;8182;55.648;13.208;2023-11-19T13:35:20;4.30;99.90
16154;DHT22;8182;55.648;13.208;2023-11-19T13:37:48;4.20;99.90
16154;DHT22;8182;55.648;13.208;2023-11-19T13:40:15;4.20;99.90
16154;DHT22;8182;55.648;13.208;2023-11-19T13:42:43;4.40;99.90
16154;DHT22;8182;55.648;13.208;2023-11-19T13:45:17;4.30;99.90
16154;DHT22;8182;55.648;13.208;2023-11-19T13:47:46;4.30;99.90
16154;DHT22;8182;55.648;13.208;2023-11-19T13:50:14;4.40;99.90
16154;DHT22;8182;55.648;13.208;2023-11-19T13:52:45;4.30;99.90
16154;DHT22;8182;55.648;13.208;2023-11-19T13:55:15;4.30;99.90
16154;DHT22;8182;55.648;13.208;2023-11-19T13:57:43;4.40;99.90
16154;DHT22;8182;55.648;13.208;2023-11-19T14:00:11;4.40;99.90
16154;DHT22;8182;55.648;13.208;2023-11-19T14:02:40;4.40;99.90
16154;DHT22;8182;55.648;13.208;2023-11-19T14:05:08;4.30;99.90
16154;DHT22;8182;55.648;13.208;2023-11-19T14:07:36;4.30;99.90
16154;DHT22;8182;55.648;13.208;2023-11-19T14:10:04;4.40;99.90
16154;DHT22;8182;55.648;13.208;2023-11-19T14:12:34;4.40;99.90
16154;DHT22;8182;55.648;13.208;2023-11-19T14:15:02;4.40;99.90
16154;DHT22;8182;55.648;13.208;2023-11-19T14:17:31;4.40;99.90
16154;DHT22;8182;55.648;13.208;2023-11-19T14:19:59;4.40;99.90
16154;DHT22;8182;55.648;13.208;2023-11-19T14:22:26;4.40;99.90
16154;DHT22;8182;55.648;13.208;2023-11-19T14:24:56;4.40;99.90
16154;DHT22;8182;55.648;13.208;2023-11-19T14:27:23;4.40;99.90
16154;DHT22;8182;55.648;13.208;2023-11-19T14:29:50;4.40;99.90
16154;DHT22;8182;55.648;13.208;2023-11-19T14:32:17;4.40;99.90
16154;DHT22;8182;55.648;13.208;2023-11-19T14:34:44;4.40;99.90
16154;DHT22;8182;55.648;13.208;2023-11-19T14:37:12;4.40;99.90
16154;DHT22;8182;55.648;13.208;2023-11-19T14:39:39;4.40;99.90
16154;DHT22;8182;55.648;13.208;2023-11-19T14:42:06;4.40;99.90
16154;DHT22;8182;55.648;13.208;2023-11-19T14:44:34;4.40;99.90
16154;DHT22;8182;55.648;13.208;2023-11-19T14:47:01;4.40;99.90
16154;DHT22;8182;55.648;13.208;2023-11-19T14:49:34;4.40;99.90
16154;DHT22;8182;55.648;13.208;2023-11-19T14:52:02;4.40;99.90
16154;DHT22;8182;55.648;13.208;2023-11-19T14:54:30;4.40;99.90
16154;DHT22;8182;55.648;13.208;2023-11-19T14:56:57;4.40;99.90
16154;DHT22;8182;55.648;13.208;2023-11-19T14:59:29;4.40;99.90
16154;DHT22;8182;55.648;13.208;2023-11-19T15:01:56;4.40;99.90
16154;DHT22;8182;55.648;13.208;2023-11-19T15:04:23;4.40;99.90
16154;DHT22;8182;55.648;13.208;2023-11-19T15:06:50;4.40;99.90
16154;DHT22;8182;55.648;13.208;2023-11-19T15:09:17;4.40;99.90
16154;DHT22;8182;55.648;13.208;2023-11-19T15:11:45;4.40;99.90
16154;DHT22;8182;55.648;13.208;2023-11-19T15:14:12;4.40;99.90
16154;DHT22;8182;55.648;13.208;2023-11-19T15:16:42;4.30;99.90
16154;DHT22;8182;55.648;13.208;2023-11-19T15:19:09;4.40;99.90
16154;DHT22;8182;55.648;13.208;2023-11-19T15:21:38;4.40;99.90
16154;DHT22;8182;55.648;13.208;2023-11-19T15:24:06;4.40;99.90
16154;DHT22;8182;55.648;13.208;2023-11-19T15:26:33;4.30;99.90
16154;DHT22;8182;55.648;13.208;2023-11-19T15:29:02;4.30;99.90
16154;DHT22;8182;55.648;13.208;2023-11-19T15:31:29;4.30;99.90
16154;DHT22;8182;55.648;13.208;2023-11-19T15:33:56;4.30;99.90
16154;DHT22;8182;55.648;13.208;2023-11-19T15:36:26;4.30;99.90
16154;DHT22;8182;55.648;13.208;2023-11-19T15:38:53;4.30;99.90
16154;DHT22;8182;55.648;13.208;2023-11-19T15:41:20;4.30;99.90
16154;DHT22;8182;55.648;13.208;2023-11-19T15:43:47;4.30;99.90
16154;DHT22;8182;55.648;13.208;2023-11-19T15:46:15;4.30;99.90
16154;DHT22;8182;55.648;13.208;2023-11-19T15:48:42;4.30;99.90
16154;DHT22;8182;55.648;13.208;2023-11-19T15:51:09;4.30;99.90
16154;DHT22;8182;55.648;13.208;2023-11-19T15:53:36;4.30;99.90
16154;DHT22;8182;55.648;13.208;2023-11-19T15:56:04;4.30;99.90
16154;DHT22;8182;55.648;13.208;2023-11-19T15:58:31;4.20;99.90
16154;DHT22;8182;55.648;13.208;2023-11-19T16:00:58;4.20;99.90
16154;DHT22;8182;55.648;13.208;2023-11-19T16:03:27;4.20;99.90
16154;DHT22;8182;55.648;13.208;2023-11-19T16:05:55;4.10;99.90
16154;DHT22;8182;55.648;13.208;2023-11-19T16:08:22;4.10;99.90